LFSB METAR and TAF | Updated Today

LFSB METAR

EuroAirport Basel-Mulhouse-Freiburg Airport

Observation time: 21 min. ago

LFSB 291130Z 36012KT 310V030 9999 SCT050 SCT093 18/05 Q1012 NOSIG

Need help? Read our tutorial on how to read METARs or read the parsed version below.

EuroAirport Basel-Mulhouse-Freiburg Airport (LFSB) METAR

  • Weather conditions on Sun, 29 May 2022 11:30:00 +0000 (21 min. ago):
  • Present conditions: Dry
  • Clouds: Scattered at 1524 meters; scattered at 2835 meters
  • Visibility: Greater than 10 km
  • Wind: 360 degrees at 12 knots
  • Temperature: 18 celsius
  • Dew point: 5 celsius
  • Pressure: 1012 millibars
  • Remarks: None


Useful to know...

LFSB TAF

EuroAirport Basel-Mulhouse-Freiburg Airport

TAF LFSB 290500Z 2906/3006 35008KT CAVOK PROB30 TEMPO 2908/2915 FEW050TCU
Observation time: 6:51 hr. ago
Need help? Read our tutorial on how to read TAFs or read the parsed version below.

Parsed version of TAF for EuroAirport Basel-Mulhouse-Freiburg Airport (LFSB)

  • From 29 May at 06:00 UTC, to day 30 of the month at 06:00 UTC
  • Visibility: Greater than 10 km
  • Wind: 350 degrees at 8
  • Expected to arise temporarily, from 29 May at 08:00 UTC, to day 29 of the month at 15:00 UTC
    Probability of 30%
  • Clouds: A few at 1524 meters, towering cumulus